sensor_id;sensor_type;location;lat;lon;timestamp;P1;durP1;ratioP1;P2;durP2;ratioP2
7545;SDS011;3814;51.454;12.616;2022-07-22T00:02:14;5.18;;;3.50;;
7545;SDS011;3814;51.454;12.616;2022-07-22T00:04:39;4.72;;;3.38;;
7545;SDS011;3814;51.454;12.616;2022-07-22T00:07:05;6.03;;;3.22;;
7545;SDS011;3814;51.454;12.616;2022-07-22T00:09:31;4.80;;;3.47;;
7545;SDS011;3814;51.454;12.616;2022-07-22T00:11:57;5.75;;;3.40;;
7545;SDS011;3814;51.454;12.616;2022-07-22T00:14:22;5.68;;;3.50;;
7545;SDS011;3814;51.454;12.616;2022-07-22T00:16:48;4.68;;;3.20;;
7545;SDS011;3814;51.454;12.616;2022-07-22T00:19:13;4.80;;;3.25;;
7545;SDS011;3814;51.454;12.616;2022-07-22T00:21:39;5.43;;;3.30;;
7545;SDS011;3814;51.454;12.616;2022-07-22T00:24:04;5.72;;;3.53;;
7545;SDS011;3814;51.454;12.616;2022-07-22T00:26:30;6.53;;;3.53;;
7545;SDS011;3814;51.454;12.616;2022-07-22T00:28:56;4.82;;;3.22;;
7545;SDS011;3814;51.454;12.616;2022-07-22T00:31:21;5.25;;;3.60;;
7545;SDS011;3814;51.454;12.616;2022-07-22T00:33:47;5.72;;;3.67;;
7545;SDS011;3814;51.454;12.616;2022-07-22T00:36:12;5.00;;;3.28;;
7545;SDS011;3814;51.454;12.616;2022-07-22T00:38:38;5.70;;;3.40;;
7545;SDS011;3814;51.454;12.616;2022-07-22T00:41:04;5.25;;;3.40;;
7545;SDS011;3814;51.454;12.616;2022-07-22T00:43:52;6.03;;;3.60;;
7545;SDS011;3814;51.454;12.616;2022-07-22T00:46:31;6.63;;;3.70;;
7545;SDS011;3814;51.454;12.616;2022-07-22T00:48:57;6.13;;;3.90;;
7545;SDS011;3814;51.454;12.616;2022-07-22T00:51:24;4.70;;;3.47;;
7545;SDS011;3814;51.454;12.616;2022-07-22T00:53:50;5.95;;;3.80;;
7545;SDS011;3814;51.454;12.616;2022-07-22T00:56:16;6.13;;;3.60;;
7545;SDS011;3814;51.454;12.616;2022-07-22T00:58:42;6.43;;;3.97;;
7545;SDS011;3814;51.454;12.616;2022-07-22T01:01:09;5.38;;;4.00;;
7545;SDS011;3814;51.454;12.616;2022-07-22T01:03:34;5.65;;;3.90;;
7545;SDS011;3814;51.454;12.616;2022-07-22T01:06:00;6.20;;;3.72;;
7545;SDS011;3814;51.454;12.616;2022-07-22T01:08:26;7.47;;;4.30;;
7545;SDS011;3814;51.454;12.616;2022-07-22T01:10:52;8.73;;;4.20;;
7545;SDS011;3814;51.454;12.616;2022-07-22T01:13:17;5.57;;;3.70;;
7545;SDS011;3814;51.454;12.616;2022-07-22T01:15:43;6.47;;;4.05;;
7545;SDS011;3814;51.454;12.616;2022-07-22T01:18:08;5.75;;;4.22;;
7545;SDS011;3814;51.454;12.616;2022-07-22T01:20:34;7.30;;;4.03;;
7545;SDS011;3814;51.454;12.616;2022-07-22T01:23:01;7.03;;;4.32;;
7545;SDS011;3814;51.454;12.616;2022-07-22T04:03:04;6.85;;;4.50;;
7545;SDS011;3814;51.454;12.616;2022-07-22T04:05:50;8.55;;;4.55;;
7545;SDS011;3814;51.454;12.616;2022-07-22T04:08:16;6.60;;;4.45;;
7545;SDS011;3814;51.454;12.616;2022-07-22T04:10:42;7.78;;;4.72;;
7545;SDS011;3814;51.454;12.616;2022-07-22T04:13:08;8.25;;;4.70;;
7545;SDS011;3814;51.454;12.616;2022-07-22T04:15:33;6.65;;;4.43;;
7545;SDS011;3814;51.454;12.616;2022-07-22T04:17:59;7.97;;;4.70;;
7545;SDS011;3814;51.454;12.616;2022-07-22T04:20:25;7.20;;;4.50;;
7545;SDS011;3814;51.454;12.616;2022-07-22T04:22:51;7.10;;;4.65;;
7545;SDS011;3814;51.454;12.616;2022-07-22T04:25:17;9.13;;;5.38;;
7545;SDS011;3814;51.454;12.616;2022-07-22T04:27:42;8.30;;;4.60;;
7545;SDS011;3814;51.454;12.616;2022-07-22T04:30:08;7.25;;;4.93;;
7545;SDS011;3814;51.454;12.616;2022-07-22T04:32:33;8.02;;;5.07;;
7545;SDS011;3814;51.454;12.616;2022-07-22T04:34:59;8.75;;;5.05;;
7545;SDS011;3814;51.454;12.616;2022-07-22T04:37:24;7.13;;;4.95;;
7545;SDS011;3814;51.454;12.616;2022-07-22T04:39:50;8.15;;;4.57;;
7545;SDS011;3814;51.454;12.616;2022-07-22T04:42:15;8.48;;;5.28;;
7545;SDS011;3814;51.454;12.616;2022-07-22T04:44:40;7.18;;;4.55;;
7545;SDS011;3814;51.454;12.616;2022-07-22T04:47:06;6.60;;;4.28;;
7545;SDS011;3814;51.454;12.616;2022-07-22T04:49:32;6.30;;;4.10;;
7545;SDS011;3814;51.454;12.616;2022-07-22T04:51:57;8.80;;;4.90;;
7545;SDS011;3814;51.454;12.616;2022-07-22T04:54:22;7.40;;;4.35;;
7545;SDS011;3814;51.454;12.616;2022-07-22T04:56:48;6.75;;;4.05;;
7545;SDS011;3814;51.454;12.616;2022-07-22T04:59:13;7.10;;;4.28;;
7545;SDS011;3814;51.454;12.616;2022-07-22T05:01:38;5.70;;;3.85;;
7545;SDS011;3814;51.454;12.616;2022-07-22T05:04:03;7.35;;;3.90;;
7545;SDS011;3814;51.454;12.616;2022-07-22T05:06:29;7.45;;;4.13;;
7545;SDS011;3814;51.454;12.616;2022-07-22T05:08:54;5.95;;;4.00;;
7545;SDS011;3814;51.454;12.616;2022-07-22T05:11:20;6.50;;;4.05;;
7545;SDS011;3814;51.454;12.616;2022-07-22T05:13:45;6.28;;;4.22;;
7545;SDS011;3814;51.454;12.616;2022-07-22T05:16:10;5.45;;;3.92;;
7545;SDS011;3814;51.454;12.616;2022-07-22T05:18:36;6.93;;;4.45;;
7545;SDS011;3814;51.454;12.616;2022-07-22T05:21:03;6.30;;;3.95;;
7545;SDS011;3814;51.454;12.616;2022-07-22T05:23:29;6.88;;;4.10;;
7545;SDS011;3814;51.454;12.616;2022-07-22T05:25:54;9.82;;;4.45;;
7545;SDS011;3814;51.454;12.616;2022-07-22T05:28:19;5.85;;;3.88;;
7545;SDS011;3814;51.454;12.616;2022-07-22T05:30:45;8.00;;;4.47;;
7545;SDS011;3814;51.454;12.616;2022-07-22T05:33:10;6.57;;;4.43;;
7545;SDS011;3814;51.454;12.616;2022-07-22T05:35:35;6.18;;;4.32;;
7545;SDS011;3814;51.454;12.616;2022-07-22T05:38:01;7.75;;;4.68;;
7545;SDS011;3814;51.454;12.616;2022-07-22T05:40:26;7.90;;;4.18;;
7545;SDS011;3814;51.454;12.616;2022-07-22T05:42:51;7.55;;;4.38;;
7545;SDS011;3814;51.454;12.616;2022-07-22T05:45:17;6.10;;;4.28;;
7545;SDS011;3814;51.454;12.616;2022-07-22T05:47:42;6.13;;;4.30;;
7545;SDS011;3814;51.454;12.616;2022-07-22T05:50:07;6.60;;;4.15;;
7545;SDS011;3814;51.454;12.616;2022-07-22T05:52:35;6.15;;;4.00;;
7545;SDS011;3814;51.454;12.616;2022-07-22T05:55:01;6.43;;;3.97;;
7545;SDS011;3814;51.454;12.616;2022-07-22T05:57:27;8.15;;;4.38;;
7545;SDS011;3814;51.454;12.616;2022-07-22T05:59:52;6.28;;;3.83;;
7545;SDS011;3814;51.454;12.616;2022-07-22T06:02:17;6.35;;;4.03;;
7545;SDS011;3814;51.454;12.616;2022-07-22T06:04:43;6.38;;;4.20;;
7545;SDS011;3814;51.454;12.616;2022-07-22T06:07:08;6.20;;;4.07;;
7545;SDS011;3814;51.454;12.616;2022-07-22T06:09:33;8.00;;;4.20;;
7545;SDS011;3814;51.454;12.616;2022-07-22T06:11:58;6.18;;;4.03;;
7545;SDS011;3814;51.454;12.616;2022-07-22T06:14:24;8.50;;;4.28;;
7545;SDS011;3814;51.454;12.616;2022-07-22T06:16:49;7.78;;;4.25;;
7545;SDS011;3814;51.454;12.616;2022-07-22T06:19:14;9.35;;;5.00;;
7545;SDS011;3814;51.454;12.616;2022-07-22T06:21:40;7.15;;;4.65;;
7545;SDS011;3814;51.454;12.616;2022-07-22T06:24:05;7.43;;;4.88;;
7545;SDS011;3814;51.454;12.616;2022-07-22T06:26:31;6.88;;;4.47;;
7545;SDS011;3814;51.454;12.616;2022-07-22T06:28:56;6.60;;;4.40;;
7545;SDS011;3814;51.454;12.616;2022-07-22T06:31:22;6.60;;;4.88;;
7545;SDS011;3814;51.454;12.616;2022-07-22T06:33:47;6.47;;;4.60;;
7545;SDS011;3814;51.454;12.616;2022-07-22T06:36:12;7.65;;;4.65;;
7545;SDS011;3814;51.454;12.616;2022-07-22T06:38:39;6.18;;;4.47;;
7545;SDS011;3814;51.454;12.616;2022-07-22T06:41:04;11.55;;;6.72;;
7545;SDS011;3814;51.454;12.616;2022-07-22T06:43:29;7.32;;;4.25;;
7545;SDS011;3814;51.454;12.616;2022-07-22T06:45:55;6.43;;;3.30;;
7545;SDS011;3814;51.454;12.616;2022-07-22T06:48:20;6.95;;;4.35;;
7545;SDS011;3814;51.454;12.616;2022-07-22T08:24:08;4.78;;;2.55;;
7545;SDS011;3814;51.454;12.616;2022-07-22T09:26:31;6.00;;;2.63;;
7545;SDS011;3814;51.454;12.616;2022-07-22T09:32:41;2.90;;;2.00;;
7545;SDS011;3814;51.454;12.616;2022-07-22T09:35:07;3.20;;;2.25;;
7545;SDS011;3814;51.454;12.616;2022-07-22T09:37:33;3.00;;;2.17;;
7545;SDS011;3814;51.454;12.616;2022-07-22T09:40:11;5.47;;;2.22;;
7545;SDS011;3814;51.454;12.616;2022-07-22T09:42:46;4.88;;;2.28;;
7545;SDS011;3814;51.454;12.616;2022-07-22T09:45:13;4.45;;;1.98;;
7545;SDS011;3814;51.454;12.616;2022-07-22T09:47:42;2.80;;;2.03;;
7545;SDS011;3814;51.454;12.616;2022-07-22T09:50:15;3.33;;;1.98;;
7545;SDS011;3814;51.454;12.616;2022-07-22T09:52:42;4.93;;;2.70;;
7545;SDS011;3814;51.454;12.616;2022-07-22T09:55:08;4.70;;;2.33;;
7545;SDS011;3814;51.454;12.616;2022-07-22T09:57:34;5.13;;;2.10;;
7545;SDS011;3814;51.454;12.616;2022-07-22T09:59:59;2.45;;;2.08;;
7545;SDS011;3814;51.454;12.616;2022-07-22T10:02:24;5.75;;;2.10;;
7545;SDS011;3814;51.454;12.616;2022-07-22T10:04:51;2.50;;;2.10;;
7545;SDS011;3814;51.454;12.616;2022-07-22T10:07:17;4.78;;;2.00;;
7545;SDS011;3814;51.454;12.616;2022-07-22T10:09:43;2.78;;;2.20;;
7545;SDS011;3814;51.454;12.616;2022-07-22T10:12:11;3.28;;;2.10;;
7545;SDS011;3814;51.454;12.616;2022-07-22T10:14:37;2.58;;;1.90;;
7545;SDS011;3814;51.454;12.616;2022-07-22T10:17:02;4.07;;;2.13;;
7545;SDS011;3814;51.454;12.616;2022-07-22T10:19:28;3.97;;;2.03;;
7545;SDS011;3814;51.454;12.616;2022-07-22T10:21:53;4.15;;;2.08;;
7545;SDS011;3814;51.454;12.616;2022-07-22T10:24:19;3.10;;;1.83;;
7545;SDS011;3814;51.454;12.616;2022-07-22T10:34:40;2.60;;;2.00;;
7545;SDS011;3814;51.454;12.616;2022-07-22T10:37:35;2.30;;;1.83;;
7545;SDS011;3814;51.454;12.616;2022-07-22T10:47:57;3.25;;;1.80;;
7545;SDS011;3814;51.454;12.616;2022-07-22T10:53:04;2.60;;;1.70;;
7545;SDS011;3814;51.454;12.616;2022-07-22T10:55:34;2.17;;;1.70;;
7545;SDS011;3814;51.454;12.616;2022-07-22T10:58:01;3.33;;;1.70;;
7545;SDS011;3814;51.454;12.616;2022-07-22T11:01:06;2.72;;;1.63;;
7545;SDS011;3814;51.454;12.616;2022-07-22T11:03:42;1.77;;;1.60;;
7545;SDS011;3814;51.454;12.616;2022-07-22T11:08:49;2.17;;;1.58;;
7545;SDS011;3814;51.454;12.616;2022-07-22T11:11:17;2.80;;;1.70;;
7545;SDS011;3814;51.454;12.616;2022-07-22T11:13:43;2.20;;;1.70;;
7545;SDS011;3814;51.454;12.616;2022-07-22T11:16:23;3.38;;;1.98;;
7545;SDS011;3814;51.454;12.616;2022-07-22T11:18:56;3.75;;;1.90;;
7545;SDS011;3814;51.454;12.616;2022-07-22T11:21:24;2.58;;;1.67;;
7545;SDS011;3814;51.454;12.616;2022-07-22T11:23:51;4.07;;;1.90;;
7545;SDS011;3814;51.454;12.616;2022-07-22T11:26:18;6.80;;;1.70;;
7545;SDS011;3814;51.454;12.616;2022-07-22T11:28:50;2.97;;;1.70;;
7545;SDS011;3814;51.454;12.616;2022-07-22T11:54:38;2.55;;;1.90;;
7545;SDS011;3814;51.454;12.616;2022-07-22T12:00:11;4.72;;;2.15;;
7545;SDS011;3814;51.454;12.616;2022-07-22T12:02:36;3.30;;;1.80;;
7545;SDS011;3814;51.454;12.616;2022-07-22T12:05:02;1.60;;;1.50;;
7545;SDS011;3814;51.454;12.616;2022-07-22T12:07:27;2.58;;;1.80;;
7545;SDS011;3814;51.454;12.616;2022-07-22T12:09:53;2.70;;;1.73;;
7545;SDS011;3814;51.454;12.616;2022-07-22T12:12:46;4.15;;;1.80;;
7545;SDS011;3814;51.454;12.616;2022-07-22T12:15:11;2.78;;;2.00;;
7545;SDS011;3814;51.454;12.616;2022-07-22T12:17:37;3.00;;;1.90;;
7545;SDS011;3814;51.454;12.616;2022-07-22T12:20:09;4.10;;;1.90;;
7545;SDS011;3814;51.454;12.616;2022-07-22T12:28:31;2.50;;;1.63;;
7545;SDS011;3814;51.454;12.616;2022-07-22T12:31:16;3.08;;;1.80;;
7545;SDS011;3814;51.454;12.616;2022-07-22T12:33:48;2.72;;;1.95;;
7545;SDS011;3814;51.454;12.616;2022-07-22T12:36:13;3.00;;;1.85;;
7545;SDS011;3814;51.454;12.616;2022-07-22T12:38:39;3.58;;;2.20;;
7545;SDS011;3814;51.454;12.616;2022-07-22T12:41:21;3.25;;;1.95;;
7545;SDS011;3814;51.454;12.616;2022-07-22T12:46:18;2.90;;;2.10;;
7545;SDS011;3814;51.454;12.616;2022-07-22T12:48:53;4.32;;;2.10;;
7545;SDS011;3814;51.454;12.616;2022-07-22T12:51:18;4.13;;;2.50;;
7545;SDS011;3814;51.454;12.616;2022-07-22T12:53:44;3.05;;;2.47;;
7545;SDS011;3814;51.454;12.616;2022-07-22T12:56:09;3.80;;;2.67;;
7545;SDS011;3814;51.454;12.616;2022-07-22T12:58:35;3.55;;;2.45;;
7545;SDS011;3814;51.454;12.616;2022-07-22T13:01:03;4.15;;;2.55;;
7545;SDS011;3814;51.454;12.616;2022-07-22T13:03:28;6.93;;;3.13;;
7545;SDS011;3814;51.454;12.616;2022-07-22T13:05:56;3.55;;;2.65;;
7545;SDS011;3814;51.454;12.616;2022-07-22T13:08:22;5.55;;;2.75;;
7545;SDS011;3814;51.454;12.616;2022-07-22T13:10:52;4.10;;;3.13;;
7545;SDS011;3814;51.454;12.616;2022-07-22T13:13:18;3.72;;;3.03;;
7545;SDS011;3814;51.454;12.616;2022-07-22T13:15:44;3.53;;;2.78;;
7545;SDS011;3814;51.454;12.616;2022-07-22T13:18:10;3.72;;;2.88;;
7545;SDS011;3814;51.454;12.616;2022-07-22T13:20:54;4.60;;;3.13;;
7545;SDS011;3814;51.454;12.616;2022-07-22T13:23:25;3.00;;;2.70;;
7545;SDS011;3814;51.454;12.616;2022-07-22T13:25:50;4.93;;;3.00;;
7545;SDS011;3814;51.454;12.616;2022-07-22T13:28:16;5.13;;;2.90;;
7545;SDS011;3814;51.454;12.616;2022-07-22T13:30:41;5.32;;;3.33;;
7545;SDS011;3814;51.454;12.616;2022-07-22T13:33:07;4.65;;;2.95;;
7545;SDS011;3814;51.454;12.616;2022-07-22T13:35:32;3.45;;;2.92;;
7545;SDS011;3814;51.454;12.616;2022-07-22T13:37:58;4.05;;;3.10;;
7545;SDS011;3814;51.454;12.616;2022-07-22T13:40:23;3.97;;;2.60;;
7545;SDS011;3814;51.454;12.616;2022-07-22T13:42:49;4.93;;;3.17;;
7545;SDS011;3814;51.454;12.616;2022-07-22T13:45:15;6.32;;;2.95;;
7545;SDS011;3814;51.454;12.616;2022-07-22T13:47:42;4.53;;;2.70;;
7545;SDS011;3814;51.454;12.616;2022-07-22T13:50:17;3.80;;;2.90;;
7545;SDS011;3814;51.454;12.616;2022-07-22T13:55:10;4.07;;;3.10;;
7545;SDS011;3814;51.454;12.616;2022-07-22T13:57:39;5.93;;;3.10;;
7545;SDS011;3814;51.454;12.616;2022-07-22T14:00:40;3.90;;;2.70;;
7545;SDS011;3814;51.454;12.616;2022-07-22T14:03:13;3.67;;;3.00;;
7545;SDS011;3814;51.454;12.616;2022-07-22T14:05:45;8.63;;;3.17;;
7545;SDS011;3814;51.454;12.616;2022-07-22T14:08:30;6.22;;;3.08;;
7545;SDS011;3814;51.454;12.616;2022-07-22T14:10:58;3.58;;;2.80;;
7545;SDS011;3814;51.454;12.616;2022-07-22T14:13:24;4.30;;;2.90;;
7545;SDS011;3814;51.454;12.616;2022-07-22T14:15:49;4.30;;;3.08;;
7545;SDS011;3814;51.454;12.616;2022-07-22T14:21:04;3.75;;;3.05;;
7545;SDS011;3814;51.454;12.616;2022-07-22T14:23:29;4.03;;;3.30;;
7545;SDS011;3814;51.454;12.616;2022-07-22T14:25:54;5.03;;;3.20;;
7545;SDS011;3814;51.454;12.616;2022-07-22T14:28:20;3.97;;;3.15;;
7545;SDS011;3814;51.454;12.616;2022-07-22T14:30:45;4.65;;;3.50;;
7545;SDS011;3814;51.454;12.616;2022-07-22T14:33:10;3.80;;;3.05;;
7545;SDS011;3814;51.454;12.616;2022-07-22T14:35:36;4.28;;;3.05;;
7545;SDS011;3814;51.454;12.616;2022-07-22T14:38:01;3.92;;;3.03;;
7545;SDS011;3814;51.454;12.616;2022-07-22T14:40:26;4.47;;;3.22;;
7545;SDS011;3814;51.454;12.616;2022-07-22T14:42:52;4.10;;;3.30;;
7545;SDS011;3814;51.454;12.616;2022-07-22T14:45:17;5.85;;;3.40;;
7545;SDS011;3814;51.454;12.616;2022-07-22T14:47:42;4.07;;;3.38;;
7545;SDS011;3814;51.454;12.616;2022-07-22T14:50:08;5.32;;;3.10;;
7545;SDS011;3814;51.454;12.616;2022-07-22T14:52:33;4.88;;;3.40;;
7545;SDS011;3814;51.454;12.616;2022-07-22T14:55:00;4.55;;;3.40;;
7545;SDS011;3814;51.454;12.616;2022-07-22T14:57:25;4.10;;;3.40;;
7545;SDS011;3814;51.454;12.616;2022-07-22T14:59:51;5.55;;;3.40;;
7545;SDS011;3814;51.454;12.616;2022-07-22T15:02:16;5.13;;;3.40;;
7545;SDS011;3814;51.454;12.616;2022-07-22T15:04:42;5.13;;;3.10;;
7545;SDS011;3814;51.454;12.616;2022-07-22T15:07:07;5.25;;;3.30;;
7545;SDS011;3814;51.454;12.616;2022-07-22T15:09:32;7.38;;;3.20;;
7545;SDS011;3814;51.454;12.616;2022-07-22T15:11:58;4.28;;;2.83;;
7545;SDS011;3814;51.454;12.616;2022-07-22T15:14:23;4.47;;;3.17;;
7545;SDS011;3814;51.454;12.616;2022-07-22T15:16:49;4.43;;;3.17;;
7545;SDS011;3814;51.454;12.616;2022-07-22T15:19:14;5.25;;;3.25;;
7545;SDS011;3814;51.454;12.616;2022-07-22T15:21:39;5.97;;;3.28;;
7545;SDS011;3814;51.454;12.616;2022-07-22T15:24:05;4.25;;;2.97;;
7545;SDS011;3814;51.454;12.616;2022-07-22T15:26:30;4.32;;;3.30;;
7545;SDS011;3814;51.454;12.616;2022-07-22T15:28:56;4.28;;;3.30;;
7545;SDS011;3814;51.454;12.616;2022-07-22T15:31:21;4.43;;;3.10;;
7545;SDS011;3814;51.454;12.616;2022-07-22T15:33:46;4.25;;;3.30;;
7545;SDS011;3814;51.454;12.616;2022-07-22T15:36:14;4.07;;;3.10;;
7545;SDS011;3814;51.454;12.616;2022-07-22T15:38:39;6.82;;;3.53;;
7545;SDS011;3814;51.454;12.616;2022-07-22T15:41:05;4.03;;;2.95;;
7545;SDS011;3814;51.454;12.616;2022-07-22T15:43:31;8.90;;;3.22;;
7545;SDS011;3814;51.454;12.616;2022-07-22T15:45:56;4.18;;;3.20;;
7545;SDS011;3814;51.454;12.616;2022-07-22T15:48:22;5.60;;;3.05;;
7545;SDS011;3814;51.454;12.616;2022-07-22T15:50:47;4.07;;;3.25;;
7545;SDS011;3814;51.454;12.616;2022-07-22T15:53:13;6.65;;;3.40;;
7545;SDS011;3814;51.454;12.616;2022-07-22T15:55:38;4.88;;;3.22;;
7545;SDS011;3814;51.454;12.616;2022-07-22T15:58:04;3.85;;;3.20;;
7545;SDS011;3814;51.454;12.616;2022-07-22T16:00:48;4.82;;;3.20;;
7545;SDS011;3814;51.454;12.616;2022-07-22T16:03:13;4.22;;;3.40;;
7545;SDS011;3814;51.454;12.616;2022-07-22T16:05:39;4.10;;;3.10;;
7545;SDS011;3814;51.454;12.616;2022-07-22T16:08:04;4.70;;;3.10;;
7545;SDS011;3814;51.454;12.616;2022-07-22T16:10:30;6.53;;;3.33;;
7545;SDS011;3814;51.454;12.616;2022-07-22T16:12:55;3.55;;;2.90;;
7545;SDS011;3814;51.454;12.616;2022-07-22T16:15:20;3.80;;;3.25;;
7545;SDS011;3814;51.454;12.616;2022-07-22T16:17:46;5.25;;;3.30;;
7545;SDS011;3814;51.454;12.616;2022-07-22T16:20:11;3.95;;;3.15;;
7545;SDS011;3814;51.454;12.616;2022-07-22T16:22:36;3.90;;;3.10;;
7545;SDS011;3814;51.454;12.616;2022-07-22T16:25:02;4.55;;;3.53;;
7545;SDS011;3814;51.454;12.616;2022-07-22T16:27:28;3.88;;;3.03;;
7545;SDS011;3814;51.454;12.616;2022-07-22T16:29:53;4.35;;;3.03;;
7545;SDS011;3814;51.454;12.616;2022-07-22T16:32:18;4.20;;;3.08;;
7545;SDS011;3814;51.454;12.616;2022-07-22T16:34:44;4.97;;;3.40;;
7545;SDS011;3814;51.454;12.616;2022-07-22T16:37:09;3.85;;;3.20;;
7545;SDS011;3814;51.454;12.616;2022-07-22T16:39:34;3.50;;;2.90;;
7545;SDS011;3814;51.454;12.616;2022-07-22T16:42:00;5.18;;;3.08;;
7545;SDS011;3814;51.454;12.616;2022-07-22T16:44:25;4.10;;;3.10;;
7545;SDS011;3814;51.454;12.616;2022-07-22T16:46:50;3.78;;;2.70;;
7545;SDS011;3814;51.454;12.616;2022-07-22T16:49:16;4.32;;;2.67;;
7545;SDS011;3814;51.454;12.616;2022-07-22T16:51:41;3.92;;;2.97;;
7545;SDS011;3814;51.454;12.616;2022-07-22T16:54:06;3.85;;;2.90;;
7545;SDS011;3814;51.454;12.616;2022-07-22T16:56:32;3.50;;;2.80;;
7545;SDS011;3814;51.454;12.616;2022-07-22T16:58:57;5.90;;;2.80;;
7545;SDS011;3814;51.454;12.616;2022-07-22T17:01:22;3.72;;;3.08;;
7545;SDS011;3814;51.454;12.616;2022-07-22T17:03:48;3.92;;;2.72;;
7545;SDS011;3814;51.454;12.616;2022-07-22T17:06:13;5.38;;;2.85;;
7545;SDS011;3814;51.454;12.616;2022-07-22T17:08:38;3.40;;;2.83;;
7545;SDS011;3814;51.454;12.616;2022-07-22T17:11:04;5.90;;;2.70;;
7545;SDS011;3814;51.454;12.616;2022-07-22T17:13:29;4.03;;;3.13;;
7545;SDS011;3814;51.454;12.616;2022-07-22T17:15:56;4.65;;;2.85;;
7545;SDS011;3814;51.454;12.616;2022-07-22T17:18:21;3.50;;;2.90;;
7545;SDS011;3814;51.454;12.616;2022-07-22T17:20:46;3.53;;;2.90;;
7545;SDS011;3814;51.454;12.616;2022-07-22T17:23:12;3.63;;;2.70;;
7545;SDS011;3814;51.454;12.616;2022-07-22T17:25:37;3.60;;;2.45;;
7545;SDS011;3814;51.454;12.616;2022-07-22T17:28:03;3.03;;;2.47;;
7545;SDS011;3814;51.454;12.616;2022-07-22T17:30:28;3.72;;;2.65;;
7545;SDS011;3814;51.454;12.616;2022-07-22T17:32:53;4.28;;;2.50;;
7545;SDS011;3814;51.454;12.616;2022-07-22T17:35:19;3.20;;;2.60;;
7545;SDS011;3814;51.454;12.616;2022-07-22T17:37:44;4.10;;;2.80;;
7545;SDS011;3814;51.454;12.616;2022-07-22T17:40:13;2.95;;;2.45;;
7545;SDS011;3814;51.454;12.616;2022-07-22T17:45:13;2.80;;;2.47;;
7545;SDS011;3814;51.454;12.616;2022-07-22T17:47:39;2.75;;;2.47;;
7545;SDS011;3814;51.454;12.616;2022-07-22T17:50:04;3.33;;;2.35;;
7545;SDS011;3814;51.454;12.616;2022-07-22T17:52:33;5.13;;;2.40;;
7545;SDS011;3814;51.454;12.616;2022-07-22T17:54:59;2.75;;;2.30;;
7545;SDS011;3814;51.454;12.616;2022-07-22T17:57:25;3.67;;;2.50;;
7545;SDS011;3814;51.454;12.616;2022-07-22T17:59:50;2.95;;;2.40;;
7545;SDS011;3814;51.454;12.616;2022-07-22T18:02:17;3.10;;;2.20;;
7545;SDS011;3814;51.454;12.616;2022-07-22T18:04:43;2.83;;;2.47;;
7545;SDS011;3814;51.454;12.616;2022-07-22T18:07:08;3.00;;;2.50;;
7545;SDS011;3814;51.454;12.616;2022-07-22T18:09:33;3.00;;;2.28;;
7545;SDS011;3814;51.454;12.616;2022-07-22T18:11:58;3.40;;;2.30;;
7545;SDS011;3814;51.454;12.616;2022-07-22T18:14:24;4.00;;;2.22;;
7545;SDS011;3814;51.454;12.616;2022-07-22T18:16:49;2.95;;;2.28;;
7545;SDS011;3814;51.454;12.616;2022-07-22T18:19:15;4.43;;;2.47;;
7545;SDS011;3814;51.454;12.616;2022-07-22T18:21:40;4.57;;;2.50;;
7545;SDS011;3814;51.454;12.616;2022-07-22T18:24:06;4.35;;;2.55;;
7545;SDS011;3814;51.454;12.616;2022-07-22T18:26:31;3.33;;;2.80;;
7545;SDS011;3814;51.454;12.616;2022-07-22T18:28:57;4.50;;;3.00;;
7545;SDS011;3814;51.454;12.616;2022-07-22T18:31:22;4.40;;;2.78;;
7545;SDS011;3814;51.454;12.616;2022-07-22T18:33:47;4.72;;;3.35;;
7545;SDS011;3814;51.454;12.616;2022-07-22T18:36:13;3.95;;;3.17;;
7545;SDS011;3814;51.454;12.616;2022-07-22T18:38:38;4.25;;;3.50;;
7545;SDS011;3814;51.454;12.616;2022-07-22T18:41:04;4.32;;;3.22;;
7545;SDS011;3814;51.454;12.616;2022-07-22T18:43:30;5.22;;;3.80;;
7545;SDS011;3814;51.454;12.616;2022-07-22T18:45:55;4.35;;;3.30;;
7545;SDS011;3814;51.454;12.616;2022-07-22T18:48:21;3.83;;;3.42;;
7545;SDS011;3814;51.454;12.616;2022-07-22T18:50:46;4.50;;;3.70;;
7545;SDS011;3814;51.454;12.616;2022-07-22T18:53:14;4.03;;;3.30;;
7545;SDS011;3814;51.454;12.616;2022-07-22T18:55:43;5.10;;;3.50;;
7545;SDS011;3814;51.454;12.616;2022-07-22T18:58:08;5.07;;;3.50;;
7545;SDS011;3814;51.454;12.616;2022-07-22T19:00:34;4.43;;;3.47;;
7545;SDS011;3814;51.454;12.616;2022-07-22T19:03:00;6.43;;;3.50;;
7545;SDS011;3814;51.454;12.616;2022-07-22T19:05:26;4.97;;;3.72;;
7545;SDS011;3814;51.454;12.616;2022-07-22T19:07:51;4.40;;;3.53;;
7545;SDS011;3814;51.454;12.616;2022-07-22T19:10:16;6.28;;;4.20;;
7545;SDS011;3814;51.454;12.616;2022-07-22T19:12:42;6.22;;;4.15;;
7545;SDS011;3814;51.454;12.616;2022-07-22T19:15:08;5.28;;;4.05;;
7545;SDS011;3814;51.454;12.616;2022-07-22T19:17:34;6.80;;;4.55;;
7545;SDS011;3814;51.454;12.616;2022-07-22T19:19:59;5.53;;;4.72;;
7545;SDS011;3814;51.454;12.616;2022-07-22T19:22:24;6.35;;;4.80;;
7545;SDS011;3814;51.454;12.616;2022-07-22T19:24:50;5.78;;;4.38;;
7545;SDS011;3814;51.454;12.616;2022-07-22T19:27:15;4.90;;;3.97;;
7545;SDS011;3814;51.454;12.616;2022-07-22T19:29:41;5.60;;;4.00;;
7545;SDS011;3814;51.454;12.616;2022-07-22T19:32:06;5.47;;;4.20;;
7545;SDS011;3814;51.454;12.616;2022-07-22T19:34:32;5.65;;;4.13;;
7545;SDS011;3814;51.454;12.616;2022-07-22T19:36:57;6.43;;;4.32;;
7545;SDS011;3814;51.454;12.616;2022-07-22T19:39:23;7.13;;;4.55;;
7545;SDS011;3814;51.454;12.616;2022-07-22T19:41:48;6.75;;;4.57;;
7545;SDS011;3814;51.454;12.616;2022-07-22T19:44:14;7.88;;;4.10;;
7545;SDS011;3814;51.454;12.616;2022-07-22T19:46:39;5.05;;;4.13;;
7545;SDS011;3814;51.454;12.616;2022-07-22T19:49:05;5.90;;;3.90;;
7545;SDS011;3814;51.454;12.616;2022-07-22T19:51:30;4.82;;;3.92;;
7545;SDS011;3814;51.454;12.616;2022-07-22T19:53:55;4.93;;;3.92;;
7545;SDS011;3814;51.454;12.616;2022-07-22T19:56:21;6.45;;;4.28;;
7545;SDS011;3814;51.454;12.616;2022-07-22T19:58:46;7.43;;;4.35;;
7545;SDS011;3814;51.454;12.616;2022-07-22T20:01:12;5.20;;;3.92;;
7545;SDS011;3814;51.454;12.616;2022-07-22T20:03:37;4.82;;;3.92;;
7545;SDS011;3814;51.454;12.616;2022-07-22T20:06:02;5.22;;;4.03;;
7545;SDS011;3814;51.454;12.616;2022-07-22T20:08:30;5.43;;;4.38;;
7545;SDS011;3814;51.454;12.616;2022-07-22T20:10:55;4.90;;;3.88;;
7545;SDS011;3814;51.454;12.616;2022-07-22T20:13:21;6.55;;;4.10;;
7545;SDS011;3814;51.454;12.616;2022-07-22T20:15:46;7.22;;;3.83;;
7545;SDS011;3814;51.454;12.616;2022-07-22T20:18:11;5.40;;;4.07;;
7545;SDS011;3814;51.454;12.616;2022-07-22T20:20:37;8.38;;;4.63;;
7545;SDS011;3814;51.454;12.616;2022-07-22T20:23:03;9.18;;;5.70;;
7545;SDS011;3814;51.454;12.616;2022-07-22T20:25:28;8.20;;;5.55;;
7545;SDS011;3814;51.454;12.616;2022-07-22T20:27:54;7.22;;;5.35;;
7545;SDS011;3814;51.454;12.616;2022-07-22T20:30:19;8.18;;;4.47;;
7545;SDS011;3814;51.454;12.616;2022-07-22T20:32:44;5.93;;;4.40;;
7545;SDS011;3814;51.454;12.616;2022-07-22T20:35:11;5.70;;;4.30;;
7545;SDS011;3814;51.454;12.616;2022-07-22T20:37:37;5.47;;;4.13;;
7545;SDS011;3814;51.454;12.616;2022-07-22T20:40:02;8.07;;;4.32;;
7545;SDS011;3814;51.454;12.616;2022-07-22T20:42:28;6.22;;;4.50;;
7545;SDS011;3814;51.454;12.616;2022-07-22T20:44:53;6.78;;;4.55;;
7545;SDS011;3814;51.454;12.616;2022-07-22T20:47:18;6.18;;;4.43;;
7545;SDS011;3814;51.454;12.616;2022-07-22T20:49:44;5.65;;;4.22;;
7545;SDS011;3814;51.454;12.616;2022-07-22T20:52:09;6.10;;;4.32;;
7545;SDS011;3814;51.454;12.616;2022-07-22T20:54:34;5.57;;;4.22;;
7545;SDS011;3814;51.454;12.616;2022-07-22T20:57:00;5.78;;;4.43;;
7545;SDS011;3814;51.454;12.616;2022-07-22T20:59:25;6.13;;;4.70;;
7545;SDS011;3814;51.454;12.616;2022-07-22T21:01:51;6.20;;;4.53;;
7545;SDS011;3814;51.454;12.616;2022-07-22T21:04:18;5.95;;;4.43;;
7545;SDS011;3814;51.454;12.616;2022-07-22T21:06:43;6.75;;;4.60;;
7545;SDS011;3814;51.454;12.616;2022-07-22T21:09:09;6.55;;;4.60;;
7545;SDS011;3814;51.454;12.616;2022-07-22T21:11:34;6.50;;;4.43;;
7545;SDS011;3814;51.454;12.616;2022-07-22T21:13:59;5.47;;;4.40;;
7545;SDS011;3814;51.454;12.616;2022-07-22T21:16:25;7.38;;;4.35;;